Florida — WFAF — position and weather

sailwx.info

Track history (hours):
 
Tides and Currents Weather Stations Pressure Air Temp Water Temp Dewpoint Dewpoint Depression Visibility Wind Speed Wind Dir Waves Ship Positions

Florida

Owner: Crowley Petroleum Services, Inc., Jacksonville, FL. More information available from US FCC via Universal Licensing System and Coast Guard Vessel Documentation Center.

Last reported at 2018-Apr-25 14:30 UTC. Time now 2018-Apr-25 14:40 UTC.
Position N 48°23' W 122°50'.

Length 182 m; draft 9 m.

Type: Tanker. MMSI: 366855000.

Date/timePositionNaut miles runAvg speedWind from/ knotsBaromVisibWave heightAir tempDewpointWater temp
2018-Apr-25 14:30N 48°23' W 122°50'713.7
2018-Apr-25 14:00N 48°19' W 122°59'713.3
2018-Apr-25 13:30N 48°16' W 123°07'713.1
2018-Apr-25 13:00N 48°13' W 123°16'611.8
2018-Apr-25 12:29N 48°10' W 123°24'611.5
2018-Apr-25 12:00N 48°13' W 123°31'611.5
2018-Apr-25 11:30N 48°14' W 123°40'611.8
2018-Apr-25 11:00N 48°14' W 123°49'712.0
2018-Apr-25 10:27N 48°14' W 123°59'613.0
2018-Apr-25 10:00N 48°17' W 124°06'713.3
2018-Apr-25 09:30N 48°19' W 124°16'713.4
2018-Apr-25 09:00N 48°22' W 124°25'713.1
2018-Apr-25 08:30N 48°25' W 124°34'713.1
2018-Apr-25 08:00N 48°28' W 124°42'713.0
2018-Apr-25 07:30N 48°28' W 124°52'611.4
2018-Apr-25 06:59N 48°27' W 125°01'612.3
2018-Apr-25 06:30N 48°22' W 125°04'713.2
2018-Apr-25 06:00N 48°16' W 125°08'713.8
2018-Apr-25 05:30N 48°09' W 125°12'713.7
2018-Apr-25 05:00N 48°03' W 125°16'713.6
2018-Apr-25 04:30N 47°57' W 125°20'713.4
2018-Apr-25 04:00N 47°50' W 125°23'713.1
2018-Apr-25 03:30N 47°44' W 125°26'613.0
2018-Apr-25 03:00N 47°38' W 125°26'713.4
2018-Apr-25 02:30N 47°31' W 125°27'612.8
2018-Apr-25 02:00N 47°24' W 125°27'613.0
2018-Apr-25 01:30N 47°18' W 125°28'4 8.3
2018-Apr-25 01:00N 47°14' W 125°26'612.2
2018-Apr-25 00:30N 47°08' W 125°29'612.5
2018-Apr-25 00:00N 47°03' W 125°33'612.8
2018-Apr-24 23:30N 46°56' W 125°35'612.8
2018-Apr-24 23:00N 46°50' W 125°38'612.8
2018-Apr-24 22:30N 46°44' W 125°40'612.8
2018-Apr-24 22:00N 46°38' W 125°42'612.6
2018-Apr-24 21:30N 46°32' W 125°45'1113.0
2018-Apr-24 20:41N 46°23' W 125°37'212.3
2018-Apr-24 20:30N 46°21' W 125°35'611.4
2018-Apr-24 20:00N 46°15' W 125°34'612.3
2018-Apr-24 19:30N 46°09' W 125°36'612.9
2018-Apr-24 19:00N 46°03' W 125°39'713.7
2018-Apr-24 18:30N 45°57' W 125°44'713.2
2018-Apr-24 18:00N 45°50' W 125°43'913.5
2018-Apr-24 17:21N 45°42' W 125°40'513.5
2018-Apr-24 17:01N 45°37' W 125°38'713.1
2018-Apr-24 16:30N 45°31' W 125°38'713.4
2018-Apr-24 16:00N 45°24' W 125°39'1713.6
2018-Apr-24 14:45N 45°07' W 125°41'313.5
2018-Apr-24 14:30N 45°04' W 125°41'33312.2
2018-Apr-23 11:09N 39°31' W 125°19'1 8.6
2018-Apr-23 11:00N 39°30' W 125°19'50 7.6
2018-Apr-23 04:30N 38°43' W 124°57'22 7.9
2018-Apr-23 01:39N 38°27' W 124°38'2 7.8
2018-Apr-23 01:23N 38°25' W 124°38'3 7.9
2018-Apr-23 00:59N 38°21' W 124°38'4 7.5
2018-Apr-23 00:26N 38°17' W 124°38'3 8.0
2018-Apr-23 00:00N 38°14' W 124°38'4 8.2
2018-Apr-22 23:28N 38°09' W 124°37'4 7.9
2018-Apr-22 23:00N 38°06' W 124°37'4 8.0
2018-Apr-22 22:27N 38°01' W 124°36'3 7.4
2018-Apr-22 22:00N 37°59' W 124°34'8 8.1
2018-Apr-22 21:03N 37°54' W 124°26'0 8.8
2018-Apr-22 21:00N 37°54' W 124°26'4 8.9
2018-Apr-22 20:30N 37°51' W 124°21'4 8.9
2018-Apr-22 20:00N 37°48' W 124°17'4 8.4
2018-Apr-22 19:30N 37°44' W 124°14'4 8.2
2018-Apr-22 19:00N 37°40' W 124°12'4 7.6
2018-Apr-22 18:30N 37°38' W 124°09'510.5
2018-Apr-22 18:00N 37°36' W 124°03'510.6
2018-Apr-22 17:30N 37°34' W 123°57'612.4
2018-Apr-22 17:00N 37°34' W 123°49'612.1
2018-Apr-22 16:30N 37°34' W 123°41'612.0
2018-Apr-22 16:01N 37°34' W 123°34'612.0
2018-Apr-22 15:30N 37°34' W 123°26'612.0
2018-Apr-22 15:00N 37°34' W 123°19'511.0
2018-Apr-22 14:30N 37°34' W 123°12'4 8.4
2018-Apr-22 14:01N 37°34' W 123°06'5 9.4
2018-Apr-22 13:31N 37°36' W 123°01'510.5
2018-Apr-22 13:01N 37°39' W 122°55'510.6
2018-Apr-22 12:30N 37°42' W 122°50'5 9.9
2018-Apr-22 12:01N 37°43' W 122°44'4 7.9
2018-Apr-22 11:31N 37°45' W 122°40'611.5
2018-Apr-22 11:00N 37°48' W 122°33'611.9
2018-Apr-22 10:30N 37°50' W 122°26'510.2
2018-Apr-22 10:00N 37°56' W 122°27'612.9
2018-Apr-22 09:30N 38°01' W 122°23'713.2
2018-Apr-22 09:00N 38°04' W 122°15'611.9
2018-Apr-22 08:31N 38°02' W 122°08'1 0.2
2018-Apr-22 04:04N 38°02' W 122°07'0 0.0
2018-Apr-21 01:08N 38°02' W 122°07'0 0.0
2018-Apr-21 01:00N 38°02' W 122°07'0 0.8
2018-Apr-21 00:30N 38°02' W 122°08'2 4.1
2018-Apr-21 00:00N 38°03' W 122°10'5 9.7
2018-Apr-20 23:30N 38°04' W 122°16'510.3
2018-Apr-20 23:00N 38°02' W 122°22'5 9.2
2018-Apr-20 22:30N 37°58' W 122°26'510.7
2018-Apr-20 22:00N 37°53' W 122°26'4 8.5
2018-Apr-20 21:30N 37°49' W 122°28'713.9
2018-Apr-20 21:01N 37°46' W 122°36'611.8
2018-Apr-20 20:31N 37°43' W 122°43'510.7
2018-Apr-20 20:01N 37°40' W 122°48'510.5
2018-Apr-20 19:31N 37°37' W 122°54'510.6
2018-Apr-20 19:00N 37°34' W 122°59'510.1
2018-Apr-20 18:30N 37°32' W 123°05'510.9
2018-Apr-20 18:01N 37°32' W 123°12'610.5
2018-Apr-20 17:28N 37°32' W 123°19'510.3
2018-Apr-20 17:00N 37°33' W 123°25'3 6.8
2018-Apr-20 16:30N 37°35' W 123°28'714.6
2018-Apr-20 16:00N 37°41' W 123°32'715.1
2018-Apr-20 15:30N 37°48' W 123°37'815.1
2018-Apr-20 15:00N 37°55' W 123°42'815.5
2018-Apr-20 14:30N 38°01' W 123°47'815.4
2018-Apr-20 14:00N 38°08' W 123°53'815.7
2018-Apr-20 13:30N 38°14' W 123°58'815.3
2018-Apr-20 13:00N 38°21' W 124°03'815.3
2018-Apr-20 12:30N 38°27' W 124°08'15315.1
2018-Apr-20 02:22N 40°44' W 125°37'1 2.6
2018-Apr-20 02:00N 40°45' W 125°37'815.3
2018-Apr-20 01:30N 40°53' W 125°38'1015.3
2018-Apr-20 00:49N 41°03' W 125°39'515.9
2018-Apr-20 00:30N 41°08' W 125°40'1115.5
2018-Apr-19 23:49N 41°19' W 125°41'614.9
2018-Apr-19 23:26N 41°24' W 125°41'614.6
2018-Apr-19 23:00N 41°31' W 125°42'2614.7
2018-Apr-19 21:14N 41°57' W 125°44'8214.9
2018-Apr-19 15:47N 43°18' W 125°48'2214.8
2018-Apr-19 14:19N 43°40' W 125°47'514.9
2018-Apr-19 14:00N 43°44' W 125°46'815.0
2018-Apr-19 13:30N 43°52' W 125°46'715.0
2018-Apr-19 13:00N 43°59' W 125°45'815.0
2018-Apr-19 12:30N 44°07' W 125°44'1721.2
2018-Apr-19 11:42N 44°24' W 125°43'0 0.3
2018-Apr-19 11:21N 44°24' W 125°43'514.7
2018-Apr-19 11:00N 44°29' W 125°43'714.7
2018-Apr-19 10:30N 44°36' W 125°42'714.6
2018-Apr-19 10:00N 44°43' W 125°42'714.7
2018-Apr-19 09:30N 44°51' W 125°41'714.7
2018-Apr-19 09:00N 44°58' W 125°41'714.7
2018-Apr-19 08:30N 45°05' W 125°40'714.6
2018-Apr-19 08:00N 45°13' W 125°40'714.5
2018-Apr-19 07:31N 45°20' W 125°40'714.9
2018-Apr-19 07:00N 45°27' W 125°39'1114.9
2018-Apr-19 06:17N 45°38' W 125°39'1014.9
2018-Apr-19 05:38N 45°48' W 125°38'214.9
2018-Apr-19 05:30N 45°50' W 125°38'915.0
2018-Apr-19 04:54N 45°59' W 125°37'614.8
2018-Apr-19 04:30N 46°05' W 125°37'714.9
2018-Apr-19 04:00N 46°12' W 125°36'815.0
2018-Apr-19 03:30N 46°20' W 125°35'715.1
2018-Apr-19 03:00N 46°27' W 125°34'815.2
2018-Apr-19 02:30N 46°35' W 125°34'815.1
2018-Apr-19 02:00N 46°42' W 125°33'1015.1
2018-Apr-19 01:19N 46°53' W 125°32'515.0
2018-Apr-19 00:59N 46°57' W 125°32'715.1
2018-Apr-19 00:30N 47°05' W 125°31'815.3
2018-Apr-19 00:00N 47°12' W 125°30'815.1
2018-Apr-18 23:28N 47°21' W 125°30'5614.5
2018-Apr-18 19:35N 48°16' W 125°13'114.4
2018-Apr-18 19:30N 48°17' W 125°13'714.4
2018-Apr-18 18:59N 48°24' W 125°09'714.7
2018-Apr-18 18:30N 48°30' W 125°03'713.9
2018-Apr-18 18:00N 48°31' W 124°53'815.8
2018-Apr-18 17:30N 48°30' W 124°41'816.6
2018-Apr-18 17:00N 48°27' W 124°30'816.9
2018-Apr-18 16:30N 48°24' W 124°18'816.7
2018-Apr-18 16:00N 48°20' W 124°06'816.5
2018-Apr-18 15:30N 48°17' W 123°55'1815.2
2018-Apr-18 14:18N 48°13' W 123°28'413.4
2018-Apr-18 14:00N 48°11' W 123°24'3 6.0
2018-Apr-18 13:30N 48°08' W 123°26'0 0.2
2018-Apr-18 12:59N 48°08' W 123°26'0 0.0
2018-Apr-18 12:29N 48°08' W 123°26'0 0.1
2018-Apr-18 11:50N 48°08' W 123°26'0 0.0
2018-Apr-18 11:29N 48°08' W 123°26'0 0.0
2018-Apr-18 10:58N 48°08' W 123°26'0 0.0
2018-Apr-18 10:29N 48°08' W 123°26'0 0.0
2018-Apr-18 09:56N 48°08' W 123°26'0 0.0
2018-Apr-18 09:29N 48°08' W 123°26'0 0.0
2018-Apr-18 08:59N 48°08' W 123°26'0 0.1
2018-Apr-18 08:30N 48°08' W 123°26'0 0.1
2018-Apr-18 08:00N 48°08' W 123°26'0 0.1
2018-Apr-18 07:30N 48°08' W 123°26'0 0.2
2018-Apr-18 06:54N 48°08' W 123°26'1 1.7
2018-Apr-18 06:30N 48°08' W 123°25'4 7.4
2018-Apr-18 06:00N 48°09' W 123°20'612.9
2018-Apr-18 05:30N 48°13' W 123°12'713.3
2018-Apr-18 05:00N 48°18' W 123°05'713.6
2018-Apr-18 04:30N 48°21' W 122°56'612.9
2018-Apr-18 04:00N 48°24' W 122°48'5 9.3
2018-Apr-18 03:30N 48°28' W 122°45'4 8.4
2018-Apr-18 03:00N 48°31' W 122°40'4 7.1
2018-Apr-18 02:30N 48°31' W 122°34'  
Track history (hours):
 
Tides and Currents Weather Stations Pressure Air Temp Water Temp Dewpoint Dewpoint Depression Visibility Wind Speed Wind Dir Waves Ship Positions

Florida

Owner: Crowley Petroleum Services, Inc., Jacksonville, FL. More information available from US FCC via Universal Licensing System and Coast Guard Vessel Documentation Center.

Last reported at 2018-Apr-25 14:30 UTC. Time now 2018-Apr-25 14:40 UTC.
Position N 48°23' W 122°50'.

Length 182 m; draft 9 m.

Type: Tanker. MMSI: 366855000.

Date/timePositionNaut miles runAvg speedWind from/ knotsBaromVisibWave heightAir tempDewpointWater temp
2018-Apr-25 14:30N 48°23' W 122°50'713.7
2018-Apr-25 14:00N 48°19' W 122°59'713.3
2018-Apr-25 13:30N 48°16' W 123°07'713.1
2018-Apr-25 13:00N 48°13' W 123°16'611.8
2018-Apr-25 12:29N 48°10' W 123°24'611.5
2018-Apr-25 12:00N 48°13' W 123°31'611.5
2018-Apr-25 11:30N 48°14' W 123°40'611.8
2018-Apr-25 11:00N 48°14' W 123°49'712.0
2018-Apr-25 10:27N 48°14' W 123°59'613.0
2018-Apr-25 10:00N 48°17' W 124°06'713.3
2018-Apr-25 09:30N 48°19' W 124°16'713.4
2018-Apr-25 09:00N 48°22' W 124°25'713.1
2018-Apr-25 08:30N 48°25' W 124°34'713.1
2018-Apr-25 08:00N 48°28' W 124°42'713.0
2018-Apr-25 07:30N 48°28' W 124°52'611.4
2018-Apr-25 06:59N 48°27' W 125°01'612.3
2018-Apr-25 06:30N 48°22' W 125°04'713.2
2018-Apr-25 06:00N 48°16' W 125°08'713.8
2018-Apr-25 05:30N 48°09' W 125°12'713.7
2018-Apr-25 05:00N 48°03' W 125°16'713.6
2018-Apr-25 04:30N 47°57' W 125°20'713.4
2018-Apr-25 04:00N 47°50' W 125°23'713.1
2018-Apr-25 03:30N 47°44' W 125°26'613.0
2018-Apr-25 03:00N 47°38' W 125°26'713.4
2018-Apr-25 02:30N 47°31' W 125°27'612.8
2018-Apr-25 02:00N 47°24' W 125°27'613.0
2018-Apr-25 01:30N 47°18' W 125°28'4 8.3
2018-Apr-25 01:00N 47°14' W 125°26'612.2
2018-Apr-25 00:30N 47°08' W 125°29'612.5
2018-Apr-25 00:00N 47°03' W 125°33'612.8
2018-Apr-24 23:30N 46°56' W 125°35'612.8
2018-Apr-24 23:00N 46°50' W 125°38'612.8
2018-Apr-24 22:30N 46°44' W 125°40'612.8
2018-Apr-24 22:00N 46°38' W 125°42'612.6
2018-Apr-24 21:30N 46°32' W 125°45'1113.0
2018-Apr-24 20:41N 46°23' W 125°37'212.3
2018-Apr-24 20:30N 46°21' W 125°35'611.4
2018-Apr-24 20:00N 46°15' W 125°34'612.3
2018-Apr-24 19:30N 46°09' W 125°36'612.9
2018-Apr-24 19:00N 46°03' W 125°39'713.7
2018-Apr-24 18:30N 45°57' W 125°44'713.2
2018-Apr-24 18:00N 45°50' W 125°43'913.5
2018-Apr-24 17:21N 45°42' W 125°40'513.5
2018-Apr-24 17:01N 45°37' W 125°38'713.1
2018-Apr-24 16:30N 45°31' W 125°38'713.4
2018-Apr-24 16:00N 45°24' W 125°39'1713.6
2018-Apr-24 14:45N 45°07' W 125°41'313.5
2018-Apr-24 14:30N 45°04' W 125°41'33312.2
2018-Apr-23 11:09N 39°31' W 125°19'1 8.6
2018-Apr-23 11:00N 39°30' W 125°19'50 7.6
2018-Apr-23 04:30N 38°43' W 124°57'22 7.9
2018-Apr-23 01:39N 38°27' W 124°38'2 7.8
2018-Apr-23 01:23N 38°25' W 124°38'3 7.9
2018-Apr-23 00:59N 38°21' W 124°38'4 7.5
2018-Apr-23 00:26N 38°17' W 124°38'3 8.0
2018-Apr-23 00:00N 38°14' W 124°38'4 8.2
2018-Apr-22 23:28N 38°09' W 124°37'4 7.9
2018-Apr-22 23:00N 38°06' W 124°37'4 8.0
2018-Apr-22 22:27N 38°01' W 124°36'3 7.4
2018-Apr-22 22:00N 37°59' W 124°34'8 8.1
2018-Apr-22 21:03N 37°54' W 124°26'0 8.8
2018-Apr-22 21:00N 37°54' W 124°26'4 8.9
2018-Apr-22 20:30N 37°51' W 124°21'4 8.9
2018-Apr-22 20:00N 37°48' W 124°17'4 8.4
2018-Apr-22 19:30N 37°44' W 124°14'4 8.2
2018-Apr-22 19:00N 37°40' W 124°12'4 7.6
2018-Apr-22 18:30N 37°38' W 124°09'510.5
2018-Apr-22 18:00N 37°36' W 124°03'510.6
2018-Apr-22 17:30N 37°34' W 123°57'612.4
2018-Apr-22 17:00N 37°34' W 123°49'612.1
2018-Apr-22 16:30N 37°34' W 123°41'612.0
2018-Apr-22 16:01N 37°34' W 123°34'612.0
2018-Apr-22 15:30N 37°34' W 123°26'612.0
2018-Apr-22 15:00N 37°34' W 123°19'511.0
2018-Apr-22 14:30N 37°34' W 123°12'4 8.4
2018-Apr-22 14:01N 37°34' W 123°06'5 9.4
2018-Apr-22 13:31N 37°36' W 123°01'510.5
2018-Apr-22 13:01N 37°39' W 122°55'510.6
2018-Apr-22 12:30N 37°42' W 122°50'5 9.9
2018-Apr-22 12:01N 37°43' W 122°44'4 7.9
2018-Apr-22 11:31N 37°45' W 122°40'611.5
2018-Apr-22 11:00N 37°48' W 122°33'611.9
2018-Apr-22 10:30N 37°50' W 122°26'510.2
2018-Apr-22 10:00N 37°56' W 122°27'612.9
2018-Apr-22 09:30N 38°01' W 122°23'713.2
2018-Apr-22 09:00N 38°04' W 122°15'611.9
2018-Apr-22 08:31N 38°02' W 122°08'1 0.2
2018-Apr-22 04:04N 38°02' W 122°07'0 0.0
2018-Apr-21 01:08N 38°02' W 122°07'0 0.0
2018-Apr-21 01:00N 38°02' W 122°07'0 0.8
2018-Apr-21 00:30N 38°02' W 122°08'2 4.1
2018-Apr-21 00:00N 38°03' W 122°10'5 9.7
2018-Apr-20 23:30N 38°04' W 122°16'510.3
2018-Apr-20 23:00N 38°02' W 122°22'5 9.2
2018-Apr-20 22:30N 37°58' W 122°26'510.7
2018-Apr-20 22:00N 37°53' W 122°26'4 8.5
2018-Apr-20 21:30N 37°49' W 122°28'713.9
2018-Apr-20 21:01N 37°46' W 122°36'611.8
2018-Apr-20 20:31N 37°43' W 122°43'510.7
2018-Apr-20 20:01N 37°40' W 122°48'510.5
2018-Apr-20 19:31N 37°37' W 122°54'510.6
2018-Apr-20 19:00N 37°34' W 122°59'510.1
2018-Apr-20 18:30N 37°32' W 123°05'510.9
2018-Apr-20 18:01N 37°32' W 123°12'610.5
2018-Apr-20 17:28N 37°32' W 123°19'510.3
2018-Apr-20 17:00N 37°33' W 123°25'3 6.8
2018-Apr-20 16:30N 37°35' W 123°28'714.6
2018-Apr-20 16:00N 37°41' W 123°32'715.1
2018-Apr-20 15:30N 37°48' W 123°37'815.1
2018-Apr-20 15:00N 37°55' W 123°42'815.5
2018-Apr-20 14:30N 38°01' W 123°47'815.4
2018-Apr-20 14:00N 38°08' W 123°53'815.7
2018-Apr-20 13:30N 38°14' W 123°58'815.3
2018-Apr-20 13:00N 38°21' W 124°03'815.3
2018-Apr-20 12:30N 38°27' W 124°08'15315.1
2018-Apr-20 02:22N 40°44' W 125°37'1 2.6
2018-Apr-20 02:00N 40°45' W 125°37'815.3
2018-Apr-20 01:30N 40°53' W 125°38'1015.3
2018-Apr-20 00:49N 41°03' W 125°39'515.9
2018-Apr-20 00:30N 41°08' W 125°40'1115.5
2018-Apr-19 23:49N 41°19' W 125°41'614.9
2018-Apr-19 23:26N 41°24' W 125°41'614.6
2018-Apr-19 23:00N 41°31' W 125°42'2614.7
2018-Apr-19 21:14N 41°57' W 125°44'8214.9
2018-Apr-19 15:47N 43°18' W 125°48'2214.8
2018-Apr-19 14:19N 43°40' W 125°47'514.9
2018-Apr-19 14:00N 43°44' W 125°46'815.0
2018-Apr-19 13:30N 43°52' W 125°46'715.0
2018-Apr-19 13:00N 43°59' W 125°45'815.0
2018-Apr-19 12:30N 44°07' W 125°44'1721.2
2018-Apr-19 11:42N 44°24' W 125°43'0 0.3
2018-Apr-19 11:21N 44°24' W 125°43'514.7
2018-Apr-19 11:00N 44°29' W 125°43'714.7
2018-Apr-19 10:30N 44°36' W 125°42'714.6
2018-Apr-19 10:00N 44°43' W 125°42'714.7
2018-Apr-19 09:30N 44°51' W 125°41'714.7
2018-Apr-19 09:00N 44°58' W 125°41'714.7
2018-Apr-19 08:30N 45°05' W 125°40'714.6
2018-Apr-19 08:00N 45°13' W 125°40'714.5
2018-Apr-19 07:31N 45°20' W 125°40'714.9
2018-Apr-19 07:00N 45°27' W 125°39'1114.9
2018-Apr-19 06:17N 45°38' W 125°39'1014.9
2018-Apr-19 05:38N 45°48' W 125°38'214.9
2018-Apr-19 05:30N 45°50' W 125°38'915.0
2018-Apr-19 04:54N 45°59' W 125°37'614.8
2018-Apr-19 04:30N 46°05' W 125°37'714.9
2018-Apr-19 04:00N 46°12' W 125°36'815.0
2018-Apr-19 03:30N 46°20' W 125°35'715.1
2018-Apr-19 03:00N 46°27' W 125°34'815.2
2018-Apr-19 02:30N 46°35' W 125°34'815.1
2018-Apr-19 02:00N 46°42' W 125°33'1015.1
2018-Apr-19 01:19N 46°53' W 125°32'515.0
2018-Apr-19 00:59N 46°57' W 125°32'715.1
2018-Apr-19 00:30N 47°05' W 125°31'815.3
2018-Apr-19 00:00N 47°12' W 125°30'815.1
2018-Apr-18 23:28N 47°21' W 125°30'5614.5
2018-Apr-18 19:35N 48°16' W 125°13'114.4
2018-Apr-18 19:30N 48°17' W 125°13'714.4
2018-Apr-18 18:59N 48°24' W 125°09'714.7
2018-Apr-18 18:30N 48°30' W 125°03'713.9
2018-Apr-18 18:00N 48°31' W 124°53'815.8
2018-Apr-18 17:30N 48°30' W 124°41'816.6
2018-Apr-18 17:00N 48°27' W 124°30'816.9
2018-Apr-18 16:30N 48°24' W 124°18'816.7
2018-Apr-18 16:00N 48°20' W 124°06'816.5
2018-Apr-18 15:30N 48°17' W 123°55'1815.2
2018-Apr-18 14:18N 48°13' W 123°28'413.4
2018-Apr-18 14:00N 48°11' W 123°24'3 6.0
2018-Apr-18 13:30N 48°08' W 123°26'0 0.2
2018-Apr-18 12:59N 48°08' W 123°26'0 0.0
2018-Apr-18 12:29N 48°08' W 123°26'0 0.1
2018-Apr-18 11:50N 48°08' W 123°26'0 0.0
2018-Apr-18 11:29N 48°08' W 123°26'0 0.0
2018-Apr-18 10:58N 48°08' W 123°26'0 0.0
2018-Apr-18 10:29N 48°08' W 123°26'0 0.0
2018-Apr-18 09:56N 48°08' W 123°26'0 0.0
2018-Apr-18 09:29N 48°08' W 123°26'0 0.0
2018-Apr-18 08:59N 48°08' W 123°26'0 0.1
2018-Apr-18 08:30N 48°08' W 123°26'0 0.1
2018-Apr-18 08:00N 48°08' W 123°26'0 0.1
2018-Apr-18 07:30N 48°08' W 123°26'0 0.2
2018-Apr-18 06:54N 48°08' W 123°26'1 1.7
2018-Apr-18 06:30N 48°08' W 123°25'4 7.4
2018-Apr-18 06:00N 48°09' W 123°20'612.9
2018-Apr-18 05:30N 48°13' W 123°12'713.3
2018-Apr-18 05:00N 48°18' W 123°05'713.6
2018-Apr-18 04:30N 48°21' W 122°56'612.9
2018-Apr-18 04:00N 48°24' W 122°48'5 9.3
2018-Apr-18 03:30N 48°28' W 122°45'4 8.4
2018-Apr-18 03:00N 48°31' W 122°40'4 7.1
2018-Apr-18 02:30N 48°31' W 122°34'  

Dump ship's entire track history